sensor_id;sensor_type;location;lat;lon;timestamp;P1;durP1;ratioP1;P2;durP2;ratioP2
9972;SDS011;5027;53.560;10.062;2022-09-27T00:00:44;2.10;;;1.90;;
9972;SDS011;5027;53.560;10.062;2022-09-27T00:03:11;2.10;;;1.90;;
9972;SDS011;5027;53.560;10.062;2022-09-27T00:05:38;3.77;;;1.93;;
9972;SDS011;5027;53.560;10.062;2022-09-27T00:08:05;3.40;;;2.40;;
9972;SDS011;5027;53.560;10.062;2022-09-27T00:10:32;3.90;;;2.53;;
9972;SDS011;5027;53.560;10.062;2022-09-27T00:12:58;1.93;;;1.70;;
9972;SDS011;5027;53.560;10.062;2022-09-27T00:15:25;2.10;;;1.97;;
9972;SDS011;5027;53.560;10.062;2022-09-27T00:17:52;2.20;;;1.80;;
9972;SDS011;5027;53.560;10.062;2022-09-27T00:20:19;4.23;;;1.83;;
9972;SDS011;5027;53.560;10.062;2022-09-27T00:22:46;2.80;;;2.20;;
9972;SDS011;5027;53.560;10.062;2022-09-27T00:25:14;2.83;;;1.80;;
9972;SDS011;5027;53.560;10.062;2022-09-27T00:27:41;3.07;;;1.80;;
9972;SDS011;5027;53.560;10.062;2022-09-27T00:30:08;2.73;;;1.97;;
9972;SDS011;5027;53.560;10.062;2022-09-27T00:32:35;3.70;;;1.87;;
9972;SDS011;5027;53.560;10.062;2022-09-27T00:35:02;2.40;;;2.20;;
9972;SDS011;5027;53.560;10.062;2022-09-27T00:37:29;2.03;;;1.83;;
9972;SDS011;5027;53.560;10.062;2022-09-27T00:39:56;2.40;;;2.20;;
9972;SDS011;5027;53.560;10.062;2022-09-27T00:42:23;2.07;;;1.90;;
9972;SDS011;5027;53.560;10.062;2022-09-27T00:47:46;2.13;;;1.93;;
9972;SDS011;5027;53.560;10.062;2022-09-27T00:50:20;2.30;;;2.07;;
9972;SDS011;5027;53.560;10.062;2022-09-27T00:53:32;2.93;;;1.93;;
9972;SDS011;5027;53.560;10.062;2022-09-27T00:55:55;1.90;;;1.80;;
9972;SDS011;5027;53.560;10.062;2022-09-27T00:58:26;1.93;;;1.80;;
9972;SDS011;5027;53.560;10.062;2022-09-27T01:01:04;1.87;;;1.70;;
9972;SDS011;5027;53.560;10.062;2022-09-27T01:03:38;2.20;;;2.00;;
9972;SDS011;5027;53.560;10.062;2022-09-27T01:06:14;2.27;;;2.07;;
9972;SDS011;5027;53.560;10.062;2022-09-27T01:08:44;3.83;;;2.03;;
9972;SDS011;5027;53.560;10.062;2022-09-27T01:17:16;1.93;;;1.70;;
9972;SDS011;5027;53.560;10.062;2022-09-27T01:28:54;2.70;;;2.50;;
9972;SDS011;5027;53.560;10.062;2022-09-27T01:31:54;1.80;;;1.70;;
9972;SDS011;5027;53.560;10.062;2022-09-27T01:37:28;2.83;;;1.90;;
9972;SDS011;5027;53.560;10.062;2022-09-27T01:40:01;2.07;;;1.87;;
9972;SDS011;5027;53.560;10.062;2022-09-27T01:43:13;3.77;;;3.47;;
9972;SDS011;5027;53.560;10.062;2022-09-27T01:45:57;2.30;;;2.10;;
9972;SDS011;5027;53.560;10.062;2022-09-27T01:49:03;1.83;;;1.60;;
9972;SDS011;5027;53.560;10.062;2022-09-27T01:52:09;2.07;;;1.67;;
9972;SDS011;5027;53.560;10.062;2022-09-27T01:54:42;3.40;;;1.70;;
9972;SDS011;5027;53.560;10.062;2022-09-27T01:57:25;1.80;;;1.53;;
9972;SDS011;5027;53.560;10.062;2022-09-27T02:00:09;3.33;;;1.80;;
9972;SDS011;5027;53.560;10.062;2022-09-27T02:02:45;3.20;;;1.90;;
9972;SDS011;5027;53.560;10.062;2022-09-27T02:05:45;2.77;;;1.80;;
9972;SDS011;5027;53.560;10.062;2022-09-27T02:08:50;2.23;;;1.80;;
9972;SDS011;5027;53.560;10.062;2022-09-27T02:11:51;2.43;;;1.93;;
9972;SDS011;5027;53.560;10.062;2022-09-27T02:23:05;1.60;;;1.50;;
9972;SDS011;5027;53.560;10.062;2022-09-27T02:25:59;1.87;;;1.57;;
9972;SDS011;5027;53.560;10.062;2022-09-27T02:28:34;2.30;;;1.83;;
9972;SDS011;5027;53.560;10.062;2022-09-27T02:31:08;2.30;;;1.83;;
9972;SDS011;5027;53.560;10.062;2022-09-27T02:33:37;3.40;;;1.60;;
9972;SDS011;5027;53.560;10.062;2022-09-27T02:36:10;1.90;;;1.80;;
9972;SDS011;5027;53.560;10.062;2022-09-27T02:38:38;1.73;;;1.50;;
9972;SDS011;5027;53.560;10.062;2022-09-27T02:41:12;3.13;;;1.50;;
9972;SDS011;5027;53.560;10.062;2022-09-27T02:43:44;2.60;;;1.50;;
9972;SDS011;5027;53.560;10.062;2022-09-27T02:49:28;1.97;;;1.63;;
9972;SDS011;5027;53.560;10.062;2022-09-27T02:52:28;3.03;;;1.70;;
9972;SDS011;5027;53.560;10.062;2022-09-27T02:55:12;1.80;;;1.63;;
9972;SDS011;5027;53.560;10.062;2022-09-27T02:57:58;2.27;;;1.63;;
9972;SDS011;5027;53.560;10.062;2022-09-27T03:01:23;3.60;;;1.73;;
9972;SDS011;5027;53.560;10.062;2022-09-27T03:04:10;2.33;;;1.73;;
9972;SDS011;5027;53.560;10.062;2022-09-27T03:06:44;1.43;;;1.33;;
9972;SDS011;5027;53.560;10.062;2022-09-27T03:09:16;2.90;;;1.47;;
9972;SDS011;5027;53.560;10.062;2022-09-27T03:11:44;1.67;;;1.57;;
9972;SDS011;5027;53.560;10.062;2022-09-27T03:14:11;1.97;;;1.60;;
9972;SDS011;5027;53.560;10.062;2022-09-27T03:16:46;2.23;;;1.43;;
9972;SDS011;5027;53.560;10.062;2022-09-27T03:19:32;1.67;;;1.57;;
9972;SDS011;5027;53.560;10.062;2022-09-27T03:22:17;1.67;;;1.57;;
9972;SDS011;5027;53.560;10.062;2022-09-27T03:24:44;3.43;;;2.23;;
9972;SDS011;5027;53.560;10.062;2022-09-27T03:27:11;2.77;;;2.20;;
9972;SDS011;5027;53.560;10.062;2022-09-27T03:29:38;2.40;;;2.00;;
9972;SDS011;5027;53.560;10.062;2022-09-27T03:32:07;1.80;;;1.70;;
9972;SDS011;5027;53.560;10.062;2022-09-27T03:35:00;1.80;;;1.70;;
9972;SDS011;5027;53.560;10.062;2022-09-27T03:37:27;2.33;;;1.70;;
9972;SDS011;5027;53.560;10.062;2022-09-27T03:39:54;2.93;;;2.43;;
9972;SDS011;5027;53.560;10.062;2022-09-27T03:42:21;4.23;;;2.00;;
9972;SDS011;5027;53.560;10.062;2022-09-27T03:44:50;2.13;;;1.93;;
9972;SDS011;5027;53.560;10.062;2022-09-27T03:47:16;2.73;;;2.00;;
9972;SDS011;5027;53.560;10.062;2022-09-27T03:49:43;2.30;;;1.87;;
9972;SDS011;5027;53.560;10.062;2022-09-27T03:52:10;4.07;;;2.03;;
9972;SDS011;5027;53.560;10.062;2022-09-27T03:54:36;2.40;;;2.20;;
9972;SDS011;5027;53.560;10.062;2022-09-27T03:57:03;2.70;;;2.07;;
9972;SDS011;5027;53.560;10.062;2022-09-27T03:59:31;3.87;;;2.10;;
9972;SDS011;5027;53.560;10.062;2022-09-27T04:02:16;5.70;;;2.40;;
9972;SDS011;5027;53.560;10.062;2022-09-27T04:05:02;2.63;;;2.00;;
9972;SDS011;5027;53.560;10.062;2022-09-27T04:07:29;3.00;;;2.03;;
9972;SDS011;5027;53.560;10.062;2022-09-27T04:09:56;2.80;;;2.33;;
9972;SDS011;5027;53.560;10.062;2022-09-27T04:12:23;3.10;;;2.70;;
9972;SDS011;5027;53.560;10.062;2022-09-27T04:14:50;2.60;;;2.40;;
9972;SDS011;5027;53.560;10.062;2022-09-27T04:17:40;2.53;;;2.33;;
9972;SDS011;5027;53.560;10.062;2022-09-27T04:20:26;2.73;;;2.53;;
9972;SDS011;5027;53.560;10.062;2022-09-27T04:22:53;3.23;;;2.60;;
9972;SDS011;5027;53.560;10.062;2022-09-27T04:25:20;2.70;;;2.33;;
9972;SDS011;5027;53.560;10.062;2022-09-27T04:27:48;2.53;;;2.33;;
9972;SDS011;5027;53.560;10.062;2022-09-27T04:30:21;4.00;;;2.50;;
9972;SDS011;5027;53.560;10.062;2022-09-27T04:33:08;4.30;;;3.20;;
9972;SDS011;5027;53.560;10.062;2022-09-27T04:35:41;3.83;;;2.47;;
9972;SDS011;5027;53.560;10.062;2022-09-27T04:38:27;4.87;;;2.77;;
9972;SDS011;5027;53.560;10.062;2022-09-27T04:40:54;6.20;;;3.73;;
9972;SDS011;5027;53.560;10.062;2022-09-27T04:43:21;2.73;;;2.43;;
9972;SDS011;5027;53.560;10.062;2022-09-27T04:45:48;6.60;;;2.70;;
9972;SDS011;5027;53.560;10.062;2022-09-27T04:48:15;3.10;;;2.80;;
9972;SDS011;5027;53.560;10.062;2022-09-27T04:50:42;3.60;;;3.03;;
9972;SDS011;5027;53.560;10.062;2022-09-27T04:53:13;5.40;;;2.87;;
9972;SDS011;5027;53.560;10.062;2022-09-27T04:55:44;2.97;;;2.57;;
9972;SDS011;5027;53.560;10.062;2022-09-27T04:58:12;3.83;;;2.90;;
9972;SDS011;5027;53.560;10.062;2022-09-27T05:00:39;3.37;;;3.00;;
9972;SDS011;5027;53.560;10.062;2022-09-27T05:03:26;4.00;;;2.80;;
9972;SDS011;5027;53.560;10.062;2022-09-27T05:05:57;3.70;;;3.40;;
9972;SDS011;5027;53.560;10.062;2022-09-27T05:08:24;3.50;;;3.10;;
9972;SDS011;5027;53.560;10.062;2022-09-27T05:11:10;5.23;;;3.37;;
9972;SDS011;5027;53.560;10.062;2022-09-27T05:13:37;4.03;;;3.30;;
9972;SDS011;5027;53.560;10.062;2022-09-27T05:16:04;6.13;;;3.80;;
9972;SDS011;5027;53.560;10.062;2022-09-27T05:18:51;4.33;;;3.33;;
9972;SDS011;5027;53.560;10.062;2022-09-27T05:21:47;5.37;;;4.17;;
9972;SDS011;5027;53.560;10.062;2022-09-27T05:24:14;4.17;;;3.60;;
9972;SDS011;5027;53.560;10.062;2022-09-27T05:26:40;4.23;;;3.67;;
9972;SDS011;5027;53.560;10.062;2022-09-27T05:29:07;4.07;;;3.57;;
9972;SDS011;5027;53.560;10.062;2022-09-27T05:31:34;4.53;;;4.10;;
9972;SDS011;5027;53.560;10.062;2022-09-27T05:34:00;4.10;;;3.80;;
9972;SDS011;5027;53.560;10.062;2022-09-27T05:36:33;5.60;;;4.30;;
9972;SDS011;5027;53.560;10.062;2022-09-27T05:39:00;4.73;;;3.80;;
9972;SDS011;5027;53.560;10.062;2022-09-27T05:41:27;4.30;;;3.90;;
9972;SDS011;5027;53.560;10.062;2022-09-27T05:43:54;5.50;;;4.70;;
9972;SDS011;5027;53.560;10.062;2022-09-27T05:46:21;6.70;;;5.00;;
9972;SDS011;5027;53.560;10.062;2022-09-27T05:48:48;8.03;;;5.30;;
9972;SDS011;5027;53.560;10.062;2022-09-27T05:51:14;7.80;;;5.97;;
9972;SDS011;5027;53.560;10.062;2022-09-27T05:53:41;6.47;;;5.23;;
9972;SDS011;5027;53.560;10.062;2022-09-27T05:56:17;5.70;;;5.17;;
9972;SDS011;5027;53.560;10.062;2022-09-27T05:59:02;7.80;;;6.07;;
9972;SDS011;5027;53.560;10.062;2022-09-27T06:01:46;6.50;;;5.73;;
9972;SDS011;5027;53.560;10.062;2022-09-27T06:04:32;6.90;;;6.30;;
9972;SDS011;5027;53.560;10.062;2022-09-27T06:07:25;6.63;;;6.03;;
9972;SDS011;5027;53.560;10.062;2022-09-27T06:09:54;13.10;;;7.47;;
9972;SDS011;5027;53.560;10.062;2022-09-27T06:12:21;8.53;;;7.70;;
9972;SDS011;5027;53.560;10.062;2022-09-27T06:14:48;8.50;;;7.80;;
9972;SDS011;5027;53.560;10.062;2022-09-27T06:17:37;10.17;;;8.67;;
9972;SDS011;5027;53.560;10.062;2022-09-27T06:20:22;9.37;;;8.37;;
9972;SDS011;5027;53.560;10.062;2022-09-27T06:22:49;8.80;;;7.90;;
9972;SDS011;5027;53.560;10.062;2022-09-27T06:25:17;9.83;;;7.20;;
9972;SDS011;5027;53.560;10.062;2022-09-27T06:28:02;9.63;;;7.20;;
9972;SDS011;5027;53.560;10.062;2022-09-27T06:30:36;11.97;;;8.30;;
9972;SDS011;5027;53.560;10.062;2022-09-27T06:33:28;8.27;;;7.47;;
9972;SDS011;5027;53.560;10.062;2022-09-27T06:35:59;10.30;;;7.73;;
9972;SDS011;5027;53.560;10.062;2022-09-27T06:38:37;9.33;;;7.53;;
9972;SDS011;5027;53.560;10.062;2022-09-27T06:41:13;6.60;;;5.73;;
9972;SDS011;5027;53.560;10.062;2022-09-27T06:43:59;7.40;;;5.87;;
9972;SDS011;5027;53.560;10.062;2022-09-27T06:46:45;5.03;;;4.53;;
9972;SDS011;5027;53.560;10.062;2022-09-27T06:49:22;6.30;;;4.60;;
9972;SDS011;5027;53.560;10.062;2022-09-27T06:51:50;4.07;;;3.67;;
9972;SDS011;5027;53.560;10.062;2022-09-27T06:54:20;5.57;;;3.70;;
9972;SDS011;5027;53.560;10.062;2022-09-27T06:56:46;5.00;;;3.20;;
9972;SDS011;5027;53.560;10.062;2022-09-27T06:59:13;6.47;;;3.10;;
9972;SDS011;5027;53.560;10.062;2022-09-27T07:02:17;2.70;;;2.50;;
9972;SDS011;5027;53.560;10.062;2022-09-27T07:05:02;2.70;;;2.50;;
9972;SDS011;5027;53.560;10.062;2022-09-27T07:07:46;2.70;;;1.87;;
9972;SDS011;5027;53.560;10.062;2022-09-27T07:10:15;2.63;;;1.90;;
9972;SDS011;5027;53.560;10.062;2022-09-27T07:12:44;1.87;;;1.77;;
9972;SDS011;5027;53.560;10.062;2022-09-27T07:15:15;3.60;;;1.90;;
9972;SDS011;5027;53.560;10.062;2022-09-27T07:17:42;3.50;;;2.17;;
9972;SDS011;5027;53.560;10.062;2022-09-27T07:20:09;2.10;;;1.80;;
9972;SDS011;5027;53.560;10.062;2022-09-27T07:22:40;2.97;;;1.93;;
9972;SDS011;5027;53.560;10.062;2022-09-27T07:25:10;2.63;;;1.80;;
9972;SDS011;5027;53.560;10.062;2022-09-27T07:27:37;2.97;;;1.87;;
9972;SDS011;5027;53.560;10.062;2022-09-27T07:30:08;1.60;;;1.50;;
9972;SDS011;5027;53.560;10.062;2022-09-27T07:32:36;2.80;;;1.53;;
9972;SDS011;5027;53.560;10.062;2022-09-27T07:35:06;1.47;;;1.37;;
9972;SDS011;5027;53.560;10.062;2022-09-27T07:37:34;1.80;;;1.20;;
9972;SDS011;5027;53.560;10.062;2022-09-27T07:40:03;2.33;;;1.20;;
9972;SDS011;5027;53.560;10.062;2022-09-27T07:42:32;1.80;;;1.03;;
9972;SDS011;5027;53.560;10.062;2022-09-27T07:45:00;1.50;;;1.30;;
9972;SDS011;5027;53.560;10.062;2022-09-27T07:47:39;1.57;;;1.10;;
9972;SDS011;5027;53.560;10.062;2022-09-27T07:50:13;2.10;;;1.23;;
9972;SDS011;5027;53.560;10.062;2022-09-27T07:52:59;2.07;;;1.30;;
9972;SDS011;5027;53.560;10.062;2022-09-27T07:55:42;1.90;;;1.50;;
9972;SDS011;5027;53.560;10.062;2022-09-27T07:58:18;2.23;;;1.47;;
9972;SDS011;5027;53.560;10.062;2022-09-27T08:00:46;2.57;;;1.47;;
9972;SDS011;5027;53.560;10.062;2022-09-27T08:03:14;3.70;;;1.40;;
9972;SDS011;5027;53.560;10.062;2022-09-27T08:05:42;1.50;;;1.30;;
9972;SDS011;5027;53.560;10.062;2022-09-27T08:08:14;3.13;;;1.70;;
9972;SDS011;5027;53.560;10.062;2022-09-27T08:10:43;2.97;;;1.50;;
9972;SDS011;5027;53.560;10.062;2022-09-27T08:13:12;2.30;;;1.30;;
9972;SDS011;5027;53.560;10.062;2022-09-27T08:15:43;2.10;;;1.30;;
9972;SDS011;5027;53.560;10.062;2022-09-27T08:18:09;3.57;;;2.13;;
9972;SDS011;5027;53.560;10.062;2022-09-27T08:20:56;1.87;;;1.50;;
9972;SDS011;5027;53.560;10.062;2022-09-27T08:23:32;7.40;;;2.73;;
9972;SDS011;5027;53.560;10.062;2022-09-27T08:26:11;2.13;;;1.50;;
9972;SDS011;5027;53.560;10.062;2022-09-27T08:28:51;5.90;;;2.20;;
9972;SDS011;5027;53.560;10.062;2022-09-27T08:31:23;4.17;;;1.93;;
9972;SDS011;5027;53.560;10.062;2022-09-27T08:33:53;3.30;;;1.70;;
9972;SDS011;5027;53.560;10.062;2022-09-27T08:36:21;6.03;;;3.13;;
9972;SDS011;5027;53.560;10.062;2022-09-27T08:38:49;1.83;;;1.50;;
9972;SDS011;5027;53.560;10.062;2022-09-27T08:41:36;3.07;;;1.67;;
9972;SDS011;5027;53.560;10.062;2022-09-27T08:44:26;1.90;;;1.37;;
9972;SDS011;5027;53.560;10.062;2022-09-27T08:47:20;2.17;;;1.60;;
9972;SDS011;5027;53.560;10.062;2022-09-27T08:52:32;1.97;;;1.67;;
9972;SDS011;5027;53.560;10.062;2022-09-27T08:55:16;4.57;;;1.80;;
9972;SDS011;5027;53.560;10.062;2022-09-27T08:58:27;4.30;;;1.73;;
9972;SDS011;5027;53.560;10.062;2022-09-27T09:00:59;5.00;;;1.80;;
9972;SDS011;5027;53.560;10.062;2022-09-27T09:03:53;2.50;;;2.20;;
9972;SDS011;5027;53.560;10.062;2022-09-27T09:06:26;9.43;;;1.90;;
9972;SDS011;5027;53.560;10.062;2022-09-27T09:12:03;4.77;;;1.90;;
9972;SDS011;5027;53.560;10.062;2022-09-27T09:17:34;3.37;;;2.00;;
9972;SDS011;5027;53.560;10.062;2022-09-27T09:20:28;3.47;;;2.10;;
9972;SDS011;5027;53.560;10.062;2022-09-27T09:28:37;1.30;;;1.20;;
9972;SDS011;5027;53.560;10.062;2022-09-27T09:31:45;2.00;;;1.10;;
9972;SDS011;5027;53.560;10.062;2022-09-27T09:34:38;2.37;;;1.20;;
9972;SDS011;5027;53.560;10.062;2022-09-27T09:37:22;1.90;;;1.40;;
9972;SDS011;5027;53.560;10.062;2022-09-27T09:40:17;2.67;;;1.63;;
9972;SDS011;5027;53.560;10.062;2022-09-27T09:43:02;1.73;;;1.60;;
9972;SDS011;5027;53.560;10.062;2022-09-27T09:45:35;1.30;;;1.20;;
9972;SDS011;5027;53.560;10.062;2022-09-27T09:48:16;2.07;;;1.47;;
9972;SDS011;5027;53.560;10.062;2022-09-27T09:51:05;1.50;;;1.30;;
9972;SDS011;5027;53.560;10.062;2022-09-27T09:53:56;2.77;;;1.53;;
9972;SDS011;5027;53.560;10.062;2022-09-27T09:56:42;2.23;;;1.40;;
9972;SDS011;5027;53.560;10.062;2022-09-27T09:59:14;1.23;;;1.13;;
9972;SDS011;5027;53.560;10.062;2022-09-27T10:01:53;2.00;;;1.30;;
9972;SDS011;5027;53.560;10.062;2022-09-27T10:04:25;1.60;;;1.50;;
9972;SDS011;5027;53.560;10.062;2022-09-27T10:06:56;2.97;;;1.53;;
9972;SDS011;5027;53.560;10.062;2022-09-27T10:09:29;1.23;;;1.13;;
9972;SDS011;5027;53.560;10.062;2022-09-27T10:12:28;1.43;;;1.33;;
9972;SDS011;5027;53.560;10.062;2022-09-27T10:14:56;1.23;;;1.13;;
9972;SDS011;5027;53.560;10.062;2022-09-27T10:17:32;1.40;;;1.30;;
9972;SDS011;5027;53.560;10.062;2022-09-27T10:20:03;1.80;;;1.50;;
9972;SDS011;5027;53.560;10.062;2022-09-27T10:22:36;1.57;;;1.40;;
9972;SDS011;5027;53.560;10.062;2022-09-27T10:26:16;2.03;;;1.23;;
9972;SDS011;5027;53.560;10.062;2022-09-27T10:28:50;2.23;;;1.50;;
9972;SDS011;5027;53.560;10.062;2022-09-27T10:31:25;1.47;;;1.37;;
9972;SDS011;5027;53.560;10.062;2022-09-27T10:40:00;2.33;;;1.37;;
9972;SDS011;5027;53.560;10.062;2022-09-27T10:42:52;2.57;;;1.50;;
9972;SDS011;5027;53.560;10.062;2022-09-27T10:45:31;1.40;;;1.30;;
9972;SDS011;5027;53.560;10.062;2022-09-27T10:48:08;1.10;;;1.00;;
9972;SDS011;5027;53.560;10.062;2022-09-27T10:50:54;1.43;;;1.03;;
9972;SDS011;5027;53.560;10.062;2022-09-27T10:53:48;2.07;;;1.30;;
9972;SDS011;5027;53.560;10.062;2022-09-27T10:56:27;4.07;;;1.10;;
9972;SDS011;5027;53.560;10.062;2022-09-27T10:58:56;4.10;;;1.37;;
9972;SDS011;5027;53.560;10.062;2022-09-27T11:01:26;2.33;;;1.33;;
9972;SDS011;5027;53.560;10.062;2022-09-27T11:04:19;1.47;;;1.00;;
9972;SDS011;5027;53.560;10.062;2022-09-27T11:07:16;2.27;;;1.20;;
9972;SDS011;5027;53.560;10.062;2022-09-27T11:09:57;2.60;;;1.90;;
9972;SDS011;5027;53.560;10.062;2022-09-27T11:12:33;3.87;;;1.50;;
9972;SDS011;5027;53.560;10.062;2022-09-27T11:15:03;2.50;;;1.13;;
9972;SDS011;5027;53.560;10.062;2022-09-27T11:26:06;2.10;;;1.40;;
9972;SDS011;5027;53.560;10.062;2022-09-27T11:29:00;1.90;;;1.10;;
9972;SDS011;5027;53.560;10.062;2022-09-27T11:32:22;2.17;;;1.47;;
9972;SDS011;5027;53.560;10.062;2022-09-27T11:34:58;1.77;;;1.30;;
9972;SDS011;5027;53.560;10.062;2022-09-27T11:38:10;1.43;;;1.30;;
9972;SDS011;5027;53.560;10.062;2022-09-27T11:44:43;1.30;;;1.20;;
9972;SDS011;5027;53.560;10.062;2022-09-27T11:47:55;1.30;;;1.13;;
9972;SDS011;5027;53.560;10.062;2022-09-27T11:53:27;1.23;;;0.90;;
9972;SDS011;5027;53.560;10.062;2022-09-27T11:59:27;1.67;;;1.20;;
9972;SDS011;5027;53.560;10.062;2022-09-27T12:10:40;1.97;;;1.20;;
9972;SDS011;5027;53.560;10.062;2022-09-27T12:13:12;1.40;;;1.10;;
9972;SDS011;5027;53.560;10.062;2022-09-27T12:15:43;1.40;;;1.20;;
9972;SDS011;5027;53.560;10.062;2022-09-27T12:18:24;1.20;;;1.10;;
9972;SDS011;5027;53.560;10.062;2022-09-27T12:20:55;2.83;;;1.13;;
9972;SDS011;5027;53.560;10.062;2022-09-27T12:23:31;1.63;;;1.20;;
9972;SDS011;5027;53.560;10.062;2022-09-27T12:26:16;1.10;;;1.00;;
9972;SDS011;5027;53.560;10.062;2022-09-27T12:31:19;2.23;;;1.40;;
9972;SDS011;5027;53.560;10.062;2022-09-27T12:36:36;1.27;;;1.17;;
9972;SDS011;5027;53.560;10.062;2022-09-27T12:39:22;1.10;;;1.00;;
9972;SDS011;5027;53.560;10.062;2022-09-27T12:42:09;1.40;;;1.30;;
9972;SDS011;5027;53.560;10.062;2022-09-27T12:44:56;1.33;;;1.23;;
9972;SDS011;5027;53.560;10.062;2022-09-27T12:50:20;5.17;;;1.50;;
9972;SDS011;5027;53.560;10.062;2022-09-27T12:53:04;1.67;;;1.50;;
9972;SDS011;5027;53.560;10.062;2022-09-27T12:55:53;1.87;;;1.30;;
9972;SDS011;5027;53.560;10.062;2022-09-27T12:58:48;1.47;;;1.37;;
9972;SDS011;5027;53.560;10.062;2022-09-27T13:01:44;1.77;;;1.30;;
9972;SDS011;5027;53.560;10.062;2022-09-27T13:04:29;3.37;;;1.30;;
9972;SDS011;5027;53.560;10.062;2022-09-27T13:07:37;1.80;;;1.20;;
9972;SDS011;5027;53.560;10.062;2022-09-27T13:10:15;1.50;;;1.30;;
9972;SDS011;5027;53.560;10.062;2022-09-27T13:12:57;1.70;;;1.43;;
9972;SDS011;5027;53.560;10.062;2022-09-27T13:15:27;2.03;;;1.20;;
9972;SDS011;5027;53.560;10.062;2022-09-27T13:17:59;2.43;;;1.20;;
9972;SDS011;5027;53.560;10.062;2022-09-27T13:20:40;1.60;;;1.30;;
9972;SDS011;5027;53.560;10.062;2022-09-27T13:32:00;2.20;;;1.60;;
9972;SDS011;5027;53.560;10.062;2022-09-27T13:37:21;1.53;;;1.10;;
9972;SDS011;5027;53.560;10.062;2022-09-27T13:43:03;2.00;;;1.43;;
9972;SDS011;5027;53.560;10.062;2022-09-27T13:48:42;6.03;;;1.90;;
9972;SDS011;5027;53.560;10.062;2022-09-27T13:54:05;2.27;;;1.40;;
9972;SDS011;5027;53.560;10.062;2022-09-27T13:56:53;1.70;;;1.20;;
9972;SDS011;5027;53.560;10.062;2022-09-27T14:02:28;1.27;;;1.17;;
9972;SDS011;5027;53.560;10.062;2022-09-27T14:05:02;2.63;;;1.43;;
9972;SDS011;5027;53.560;10.062;2022-09-27T14:07:35;2.80;;;2.40;;
9972;SDS011;5027;53.560;10.062;2022-09-27T14:10:07;2.17;;;1.50;;
9972;SDS011;5027;53.560;10.062;2022-09-27T14:12:41;1.83;;;1.50;;
9972;SDS011;5027;53.560;10.062;2022-09-27T14:15:17;1.53;;;1.30;;
9972;SDS011;5027;53.560;10.062;2022-09-27T14:17:51;3.43;;;1.70;;
9972;SDS011;5027;53.560;10.062;2022-09-27T14:23:17;1.93;;;1.30;;
9972;SDS011;5027;53.560;10.062;2022-09-27T14:25:48;2.37;;;1.27;;
9972;SDS011;5027;53.560;10.062;2022-09-27T14:28:25;2.10;;;1.60;;
9972;SDS011;5027;53.560;10.062;2022-09-27T14:31:14;1.70;;;1.20;;
9972;SDS011;5027;53.560;10.062;2022-09-27T14:34:06;2.13;;;1.30;;
9972;SDS011;5027;53.560;10.062;2022-09-27T14:36:36;3.03;;;1.10;;
9972;SDS011;5027;53.560;10.062;2022-09-27T14:39:27;3.67;;;1.30;;
9972;SDS011;5027;53.560;10.062;2022-09-27T14:42:15;2.03;;;1.53;;
9972;SDS011;5027;53.560;10.062;2022-09-27T14:44:47;2.40;;;1.40;;
9972;SDS011;5027;53.560;10.062;2022-09-27T14:47:19;2.73;;;1.60;;
9972;SDS011;5027;53.560;10.062;2022-09-27T14:49:52;3.53;;;1.63;;
9972;SDS011;5027;53.560;10.062;2022-09-27T14:52:31;3.57;;;1.70;;
9972;SDS011;5027;53.560;10.062;2022-09-27T14:55:01;2.73;;;1.40;;
9972;SDS011;5027;53.560;10.062;2022-09-27T14:57:32;4.00;;;1.80;;
9972;SDS011;5027;53.560;10.062;2022-09-27T15:00:01;1.90;;;1.70;;
9972;SDS011;5027;53.560;10.062;2022-09-27T15:02:50;3.23;;;1.67;;
9972;SDS011;5027;53.560;10.062;2022-09-27T15:05:21;5.17;;;2.23;;
9972;SDS011;5027;53.560;10.062;2022-09-27T15:07:51;2.60;;;1.57;;
9972;SDS011;5027;53.560;10.062;2022-09-27T15:10:22;2.37;;;1.70;;
9972;SDS011;5027;53.560;10.062;2022-09-27T15:12:53;2.80;;;1.77;;
9972;SDS011;5027;53.560;10.062;2022-09-27T15:15:23;3.77;;;2.03;;
9972;SDS011;5027;53.560;10.062;2022-09-27T15:17:52;5.13;;;2.30;;
9972;SDS011;5027;53.560;10.062;2022-09-27T15:22:46;3.00;;;1.83;;
9972;SDS011;5027;53.560;10.062;2022-09-27T15:25:15;2.37;;;1.40;;
9972;SDS011;5027;53.560;10.062;2022-09-27T15:27:45;2.43;;;1.70;;
9972;SDS011;5027;53.560;10.062;2022-09-27T15:30:16;2.40;;;1.63;;
9972;SDS011;5027;53.560;10.062;2022-09-27T15:32:48;2.07;;;1.60;;
9972;SDS011;5027;53.560;10.062;2022-09-27T15:35:20;2.47;;;1.63;;
9972;SDS011;5027;53.560;10.062;2022-09-27T15:38:08;6.23;;;1.60;;
9972;SDS011;5027;53.560;10.062;2022-09-27T15:43:26;3.50;;;1.60;;
9972;SDS011;5027;53.560;10.062;2022-09-27T15:45:57;2.03;;;1.60;;
9972;SDS011;5027;53.560;10.062;2022-09-27T15:48:31;4.03;;;1.80;;
9972;SDS011;5027;53.560;10.062;2022-09-27T15:51:00;3.30;;;1.90;;
9972;SDS011;5027;53.560;10.062;2022-09-27T15:56:04;3.97;;;1.80;;
9972;SDS011;5027;53.560;10.062;2022-09-27T15:58:33;2.50;;;1.60;;
9972;SDS011;5027;53.560;10.062;2022-09-27T16:01:01;2.53;;;1.50;;
9972;SDS011;5027;53.560;10.062;2022-09-27T16:03:30;2.23;;;1.30;;
9972;SDS011;5027;53.560;10.062;2022-09-27T16:05:58;3.87;;;1.40;;
9972;SDS011;5027;53.560;10.062;2022-09-27T16:08:27;2.73;;;1.63;;
9972;SDS011;5027;53.560;10.062;2022-09-27T16:10:55;2.73;;;1.47;;
9972;SDS011;5027;53.560;10.062;2022-09-27T16:13:23;1.57;;;1.10;;
9972;SDS011;5027;53.560;10.062;2022-09-27T16:15:57;1.73;;;1.27;;
9972;SDS011;5027;53.560;10.062;2022-09-27T16:18:24;3.73;;;1.33;;
9972;SDS011;5027;53.560;10.062;2022-09-27T16:20:56;3.97;;;1.70;;
9972;SDS011;5027;53.560;10.062;2022-09-27T16:23:25;3.27;;;1.73;;
9972;SDS011;5027;53.560;10.062;2022-09-27T16:25:55;3.10;;;1.87;;
9972;SDS011;5027;53.560;10.062;2022-09-27T16:28:21;1.90;;;1.30;;
9972;SDS011;5027;53.560;10.062;2022-09-27T16:30:48;4.63;;;2.10;;
9972;SDS011;5027;53.560;10.062;2022-09-27T16:33:15;1.90;;;1.50;;
9972;SDS011;5027;53.560;10.062;2022-09-27T16:35:42;1.93;;;1.60;;
9972;SDS011;5027;53.560;10.062;2022-09-27T16:38:09;3.43;;;1.40;;
9972;SDS011;5027;53.560;10.062;2022-09-27T16:40:36;3.33;;;1.93;;
9972;SDS011;5027;53.560;10.062;2022-09-27T16:43:03;3.53;;;1.97;;
9972;SDS011;5027;53.560;10.062;2022-09-27T16:45:32;3.03;;;1.80;;
9972;SDS011;5027;53.560;10.062;2022-09-27T16:48:01;3.27;;;1.80;;
9972;SDS011;5027;53.560;10.062;2022-09-27T16:50:28;1.87;;;1.57;;
9972;SDS011;5027;53.560;10.062;2022-09-27T16:53:13;3.47;;;1.60;;
9972;SDS011;5027;53.560;10.062;2022-09-27T16:55:40;3.03;;;1.60;;
9972;SDS011;5027;53.560;10.062;2022-09-27T16:58:07;4.17;;;1.87;;
9972;SDS011;5027;53.560;10.062;2022-09-27T17:00:33;3.00;;;1.80;;
9972;SDS011;5027;53.560;10.062;2022-09-27T17:03:00;6.03;;;2.13;;
9972;SDS011;5027;53.560;10.062;2022-09-27T17:05:27;2.23;;;1.30;;
9972;SDS011;5027;53.560;10.062;2022-09-27T17:07:54;2.57;;;1.47;;
9972;SDS011;5027;53.560;10.062;2022-09-27T17:10:21;3.93;;;1.50;;
9972;SDS011;5027;53.560;10.062;2022-09-27T17:12:48;2.33;;;1.60;;
9972;SDS011;5027;53.560;10.062;2022-09-27T17:15:15;2.43;;;1.70;;
9972;SDS011;5027;53.560;10.062;2022-09-27T17:17:42;2.67;;;1.43;;
9972;SDS011;5027;53.560;10.062;2022-09-27T17:20:10;2.37;;;1.37;;
9972;SDS011;5027;53.560;10.062;2022-09-27T17:22:37;3.07;;;1.63;;
9972;SDS011;5027;53.560;10.062;2022-09-27T17:25:03;2.30;;;1.40;;
9972;SDS011;5027;53.560;10.062;2022-09-27T17:27:30;1.77;;;1.60;;
9972;SDS011;5027;53.560;10.062;2022-09-27T17:29:57;2.90;;;1.67;;
9972;SDS011;5027;53.560;10.062;2022-09-27T17:32:23;2.77;;;1.60;;
9972;SDS011;5027;53.560;10.062;2022-09-27T17:34:50;2.00;;;1.33;;
9972;SDS011;5027;53.560;10.062;2022-09-27T17:37:17;2.07;;;1.70;;
9972;SDS011;5027;53.560;10.062;2022-09-27T17:39:44;4.10;;;1.80;;
9972;SDS011;5027;53.560;10.062;2022-09-27T17:42:10;2.23;;;1.70;;
9972;SDS011;5027;53.560;10.062;2022-09-27T17:44:37;2.47;;;1.67;;
9972;SDS011;5027;53.560;10.062;2022-09-27T17:47:04;1.90;;;1.70;;
9972;SDS011;5027;53.560;10.062;2022-09-27T17:49:49;2.60;;;1.70;;
9972;SDS011;5027;53.560;10.062;2022-09-27T17:52:35;3.43;;;2.07;;
9972;SDS011;5027;53.560;10.062;2022-09-27T17:55:02;3.23;;;1.53;;